Toyofukumaru — JD2177 — position and weather

sailwx.info

Track history (hours):
 
Tides and Currents Weather Stations Pressure Air Temp Water Temp Dewpoint Dewpoint Depression Visibility Wind Speed Wind Dir Waves Ship Positions

Toyofukumaru

Last reported at 2014-Sep-01 12:31 UTC. Time now 2014-Sep-03 07:27 UTC.
Position N 33°45' E 132°16'.

Length 165 m; draft 6.2 m.

Type: Cargo ship. MMSI: 431200688.

Date/timePositionNaut miles runAvg speedWind from/ knotsBaromVisibWave heightAir tempDewpointWater temp
2014-Sep-01 12:31N 33°45' E 132°16'2017.5
2014-Sep-01 11:23N 34°01' E 132°31'1518.1
2014-Sep-01 10:33N 34°13' E 132°20'8 8.2
2014-Sep-01 09:32N 34°21' E 132°22'0 0.0
2014-Sep-01 08:32N 34°21' E 132°22'0 0.0
2014-Sep-01 07:32N 34°21' E 132°22'3 2.7
2014-Sep-01 06:33N 34°18' E 132°22'1918.4
2014-Sep-01 05:32N 34°01' E 132°31'1413.5
2014-Sep-01 04:31N 33°52' E 132°42'0 0.0
2014-Sep-01 03:33N 33°52' E 132°42'0 0.0
2014-Sep-01 02:15N 33°52' E 132°42'0 0.7
2014-Sep-01 01:32N 33°52' E 132°42'1717.1
2014-Sep-01 00:33N 33°43' E 132°24'  
2014-Aug-28 14:07N 33°45' E 132°16'1518.9
2014-Aug-28 13:20N 33°55' E 132°29'1214.4
2014-Aug-28 12:32N 34°06' E 132°24'1515.8
2014-Aug-28 11:33N 34°21' E 132°22'0 0.1
2014-Aug-28 10:32N 34°21' E 132°22'0 0.0
2014-Aug-28 09:32N 34°21' E 132°22'0 0.4
2014-Aug-28 08:33N 34°21' E 132°22'2217.4
2014-Aug-28 07:19N 34°01' E 132°32'1312.3
2014-Aug-28 06:17N 33°52' E 132°42'  
2014-Aug-24 16:13N 33°45' E 132°18'1419.7
2014-Aug-24 15:31N 33°55' E 132°29'1515.2
2014-Aug-24 14:33N 34°08' E 132°22'1313.2
2014-Aug-24 13:34N 34°21' E 132°22'0 0.0
2014-Aug-24 12:31N 34°21' E 132°22'0 0.0
2014-Aug-24 11:31N 34°21' E 132°22'0 0.1
2014-Aug-24 10:34N 34°21' E 132°22'1514.6
2014-Aug-24 09:31N 34°06' E 132°24'2016.3
2014-Aug-24 08:16N 33°52' E 132°42'1 0.7
2014-Aug-24 07:29N 33°52' E 132°42'0 0.0
2014-Aug-24 05:17N 33°52' E 132°42'6 8.0
2014-Aug-24 04:32N 33°48' E 132°37'  
Track history (hours):
 
Tides and Currents Weather Stations Pressure Air Temp Water Temp Dewpoint Dewpoint Depression Visibility Wind Speed Wind Dir Waves Ship Positions

Toyofukumaru

Last reported at 2014-Sep-01 12:31 UTC. Time now 2014-Sep-03 07:27 UTC.
Position N 33°45' E 132°16'.

Length 165 m; draft 6.2 m.

Type: Cargo ship. MMSI: 431200688.

Date/timePositionNaut miles runAvg speedWind from/ knotsBaromVisibWave heightAir tempDewpointWater temp
2014-Sep-01 12:31N 33°45' E 132°16'2017.5
2014-Sep-01 11:23N 34°01' E 132°31'1518.1
2014-Sep-01 10:33N 34°13' E 132°20'8 8.2
2014-Sep-01 09:32N 34°21' E 132°22'0 0.0
2014-Sep-01 08:32N 34°21' E 132°22'0 0.0
2014-Sep-01 07:32N 34°21' E 132°22'3 2.7
2014-Sep-01 06:33N 34°18' E 132°22'1918.4
2014-Sep-01 05:32N 34°01' E 132°31'1413.5
2014-Sep-01 04:31N 33°52' E 132°42'0 0.0
2014-Sep-01 03:33N 33°52' E 132°42'0 0.0
2014-Sep-01 02:15N 33°52' E 132°42'0 0.7
2014-Sep-01 01:32N 33°52' E 132°42'1717.1
2014-Sep-01 00:33N 33°43' E 132°24'  
2014-Aug-28 14:07N 33°45' E 132°16'1518.9
2014-Aug-28 13:20N 33°55' E 132°29'1214.4
2014-Aug-28 12:32N 34°06' E 132°24'1515.8
2014-Aug-28 11:33N 34°21' E 132°22'0 0.1
2014-Aug-28 10:32N 34°21' E 132°22'0 0.0
2014-Aug-28 09:32N 34°21' E 132°22'0 0.4
2014-Aug-28 08:33N 34°21' E 132°22'2217.4
2014-Aug-28 07:19N 34°01' E 132°32'1312.3
2014-Aug-28 06:17N 33°52' E 132°42'  
2014-Aug-24 16:13N 33°45' E 132°18'1419.7
2014-Aug-24 15:31N 33°55' E 132°29'1515.2
2014-Aug-24 14:33N 34°08' E 132°22'1313.2
2014-Aug-24 13:34N 34°21' E 132°22'0 0.0
2014-Aug-24 12:31N 34°21' E 132°22'0 0.0
2014-Aug-24 11:31N 34°21' E 132°22'0 0.1
2014-Aug-24 10:34N 34°21' E 132°22'1514.6
2014-Aug-24 09:31N 34°06' E 132°24'2016.3
2014-Aug-24 08:16N 33°52' E 132°42'1 0.7
2014-Aug-24 07:29N 33°52' E 132°42'0 0.0
2014-Aug-24 05:17N 33°52' E 132°42'6 8.0
2014-Aug-24 04:32N 33°48' E 132°37'  

Dump ship's entire track history